Time;durP1;ratioP1;P1;durP2;ratioP2;P2;SDS_P1;SDS_P2;PMS_P1;PMS_P2;Temp;Humidity;BMP_temperature;BMP_pressure;BME280_temperature;BME280_humidity;BME280_pressure;Samples;Min_cycle;Max_cycle;Signal;HPM_P1;HPM_P2
2023/02/24 00:04:50;;;;;;;16.63;3.43;;;;;5.20;101067.00;;;;10039980;29;20240;-78
2023/02/24 00:09:52;;;;;;;13.23;2.93;;;;;5.20;101064.00;;;;10035715;29;20557;-78
2023/02/24 00:14:54;;;;;;;12.50;3.07;;;;;5.20;101060.00;;;;10031341;29;20586;-77
2023/02/24 00:19:56;;;;;;;18.63;3.30;;;;;5.20;101052.00;;;;10011331;29;20273;-78
2023/02/24 00:25:01;;;;;;;22.00;3.13;;;;;5.20;101059.00;;;;10009812;29;20207;-78
2023/02/24 00:30:04;;;;;;;14.53;3.80;;;;;5.30;101054.00;;;;10039220;29;20196;-78
2023/02/24 00:35:08;;;;;;;13.23;2.93;;;;;5.30;101038.00;;;;10055316;29;20287;-78
2023/02/24 00:40:10;;;;;;;14.47;2.60;;;;;5.20;101038.00;;;;10039589;29;20228;-78
2023/02/24 00:45:15;;;;;;;11.43;3.40;;;;;5.00;101025.00;;;;10031446;29;20213;-78
2023/02/24 00:50:17;;;;;;;15.33;3.60;;;;;4.90;101023.00;;;;10040197;29;20224;-77
2023/02/24 00:55:22;;;;;;;15.07;3.13;;;;;4.80;101019.00;;;;10037927;29;20201;-77
2023/02/24 01:00:23;;;;;;;18.73;4.33;;;;;4.80;101015.00;;;;10005611;29;20221;-78
2023/02/24 01:05:28;;;;;;;21.60;3.77;;;;;4.80;101012.00;;;;10036157;29;20319;-78
2023/02/24 01:10:33;;;;;;;13.17;3.43;;;;;4.70;101017.00;;;;10046748;29;20185;-78
2023/02/24 01:15:35;;;;;;;18.70;3.60;;;;;4.80;101014.00;;;;10035254;29;20284;-78
2023/02/24 01:20:38;;;;;;;14.87;3.37;;;;;4.80;101012.00;;;;10021853;29;20205;-78
2023/02/24 01:25:46;;;;;;;19.60;4.83;;;;;4.90;101006.00;;;;10032646;29;20213;-78
2023/02/24 01:30:48;;;;;;;18.07;4.23;;;;;4.90;100998.00;;;;10034543;29;20198;-77
2023/02/24 01:35:50;;;;;;;17.43;3.47;;;;;4.90;100989.00;;;;10052692;29;20616;-77
2023/02/24 01:40:59;;;;;;;14.27;3.20;;;;;4.90;100976.00;;;;10045550;29;20274;-78
2023/02/24 01:46:01;;;;;;;17.83;4.37;;;;;4.90;100974.00;;;;10005952;29;20222;-78
2023/02/24 01:51:03;;;;;;;12.70;3.93;;;;;5.00;100976.00;;;;10005600;29;20223;-78
2023/02/24 01:56:06;;;;;;;11.37;3.53;;;;;5.00;100982.00;;;;10006977;29;20211;-78
2023/02/24 02:01:09;;;;;;;15.73;3.70;;;;;5.00;100976.00;;;;10021098;29;20604;-77
2023/02/24 02:06:12;;;;;;;25.10;4.10;;;;;5.00;100969.00;;;;10034358;29;20232;-78
2023/02/24 02:11:19;;;;;;;11.87;3.37;;;;;5.00;100957.00;;;;10066047;29;20260;-78
2023/02/24 02:17:07;;;;;;;8.20;2.80;;;;;5.00;100955.00;;;;10034119;29;20203;-78
2023/02/24 02:22:28;;;;;;;13.87;2.93;;;;;5.10;100940.00;;;;9989486;29;20269;-77
2023/02/24 02:27:44;;;;;;;10.53;2.67;;;;;5.10;100927.00;;;;10033089;29;20200;-77
2023/02/24 02:33:29;;;;;;;12.10;3.03;;;;;5.10;100915.00;;;;10004629;29;20196;-78
2023/02/24 02:39:02;;;;;;;15.77;2.77;;;;;5.00;100903.00;;;;10014090;29;20216;-79
2023/02/24 02:44:12;;;;;;;14.70;3.40;;;;;4.90;100898.00;;;;10032026;29;20909;-78
2023/02/24 02:49:20;;;;;;;12.27;2.70;;;;;4.80;100883.00;;;;10040996;29;20193;-77
2023/02/24 02:54:32;;;;;;;11.23;3.00;;;;;4.70;100894.00;;;;10069034;29;20828;-78
2023/02/24 02:59:40;;;;;;;10.83;2.60;;;;;4.70;100893.00;;;;10033903;29;20217;-78
2023/02/24 03:04:51;;;;;;;15.13;2.80;;;;;4.60;100876.00;;;;10030874;29;20264;-79
2023/02/24 03:09:59;;;;;;;13.83;3.73;;;;;4.60;100867.00;;;;10030515;29;20210;-79
2023/02/24 03:15:09;;;;;;;11.83;2.90;;;;;4.60;100871.00;;;;10019657;29;20201;-78
2023/02/24 03:20:22;;;;;;;8.07;2.40;;;;;4.60;100867.00;;;;10047046;29;20201;-78
2023/02/24 03:25:28;;;;;;;13.27;2.57;;;;;4.60;100872.00;;;;10031780;29;20739;-77
2023/02/24 03:30:38;;;;;;;14.00;2.87;;;;;4.60;100869.00;;;;10036515;29;20200;-77
2023/02/24 03:35:42;;;;;;;8.30;2.57;;;;;4.50;100868.00;;;;10051074;29;20193;-78
2023/02/24 03:40:45;;;;;;;19.97;3.37;;;;;4.50;100857.00;;;;10028301;29;20205;-78
2023/02/24 03:45:57;;;;;;;12.10;2.87;;;;;4.50;100853.00;;;;10047205;29;20206;-78
2023/02/24 03:50:59;;;;;;;13.87;2.97;;;;;4.50;100851.00;;;;10015142;29;20212;-78
2023/02/24 03:56:44;;;;;;;16.57;4.53;;;;;4.50;100836.00;;;;10025715;29;20213;-79
2023/02/24 04:01:56;;;;;;;14.47;2.87;;;;;4.50;100838.00;;;;10017856;29;20307;-78
2023/02/24 04:07:25;;;;;;;12.47;2.93;;;;;4.40;100825.00;;;;10045745;29;20240;-78
2023/02/24 04:12:46;;;;;;;11.87;2.53;;;;;4.40;100829.00;;;;10040248;29;20197;-78
2023/02/24 04:18:01;;;;;;;10.77;2.80;;;;;4.40;100812.00;;;;10023606;29;20553;-78
2023/02/24 04:23:16;;;;;;;12.40;2.47;;;;;4.40;100826.00;;;;10054543;29;20333;-78
2023/02/24 04:28:22;;;;;;;9.57;3.07;;;;;4.30;100816.00;;;;10043788;29;20193;-78
2023/02/24 04:33:25;;;;;;;12.73;3.00;;;;;4.30;100808.00;;;;10045685;29;20201;-77
2023/02/24 04:38:27;;;;;;;12.20;2.97;;;;;4.40;100783.00;;;;10051363;29;20195;-77
2023/02/24 04:43:29;;;;;;;21.07;3.03;;;;;4.30;100781.00;;;;9993460;29;20213;-78
2023/02/24 04:48:32;;;;;;;13.03;3.00;;;;;4.30;100783.00;;;;10047192;29;20262;-77
2023/02/24 04:53:36;;;;;;;7.73;2.17;;;;;4.30;100774.00;;;;10051868;29;20276;-78
2023/02/24 04:58:40;;;;;;;12.73;3.73;;;;;4.30;100766.00;;;;10045455;29;20227;-78
2023/02/24 05:03:42;;;;;;;28.43;2.97;;;;;4.40;100761.00;;;;10039264;29;20219;-78
2023/02/24 05:08:44;;;;;;;23.50;3.43;;;;;4.40;100760.00;;;;10036802;29;20266;-78
2023/02/24 05:13:46;;;;;;;17.60;3.03;;;;;4.50;100770.00;;;;10026674;29;20204;-78
2023/02/24 05:18:48;;;;;;;13.03;3.17;;;;;4.40;100767.00;;;;10047942;29;20202;-78
2023/02/24 05:23:52;;;;;;;9.90;2.57;;;;;4.50;100761.00;;;;10008782;29;20220;-78
2023/02/24 05:28:55;;;;;;;8.63;2.67;;;;;4.50;100754.00;;;;10037936;29;20276;-78
2023/02/24 05:34:01;;;;;;;9.00;3.00;;;;;4.40;100744.00;;;;10020868;29;21672;-78
2023/02/24 05:39:08;;;;;;;15.00;2.37;;;;;4.30;100741.00;;;;10026010;29;20197;-77
2023/02/24 05:44:16;;;;;;;11.57;2.97;;;;;4.10;100727.00;;;;10029087;29;20212;-78
2023/02/24 05:49:26;;;;;;;14.63;3.70;;;;;3.90;100728.00;;;;10022528;29;20201;-78
2023/02/24 05:54:34;;;;;;;20.57;4.47;;;;;3.80;100742.00;;;;10036056;29;20192;-78
2023/02/24 05:59:38;;;;;;;14.50;3.33;;;;;3.90;100732.00;;;;10017153;29;20197;-78
2023/02/24 06:04:49;;;;;;;16.37;3.43;;;;;3.90;100731.00;;;;10012831;29;20308;-78
2023/02/24 06:09:57;;;;;;;10.97;3.13;;;;;4.00;100722.00;;;;10036227;29;20282;-79
2023/02/24 06:14:59;;;;;;;14.67;3.70;;;;;4.00;100720.00;;;;10022636;29;20215;-78
2023/02/24 06:20:10;;;;;;;13.30;3.43;;;;;3.90;100708.00;;;;10030773;29;20917;-78
2023/02/24 06:25:13;;;;;;;12.00;2.90;;;;;3.70;100713.00;;;;10046031;29;20591;-79
2023/02/24 06:30:17;;;;;;;7.77;3.03;;;;;3.70;100704.00;;;;10021270;29;20207;-79
2023/02/24 06:35:20;;;;;;;15.87;3.30;;;;;3.70;100706.00;;;;10013064;29;20205;-78
2023/02/24 06:40:22;;;;;;;16.73;3.63;;;;;3.70;100707.00;;;;10021599;29;20189;-77
2023/02/24 06:45:25;;;;;;;12.17;3.67;;;;;3.70;100703.00;;;;10051905;29;20388;-78
2023/02/24 06:50:27;;;;;;;11.40;2.97;;;;;3.70;100699.00;;;;10020720;29;20640;-78
2023/02/24 06:55:29;;;;;;;10.07;2.70;;;;;3.70;100686.00;;;;10025905;29;20664;-78
2023/02/24 07:00:37;;;;;;;11.13;2.80;;;;;3.60;100692.00;;;;10036095;29;20204;-79
2023/02/24 07:05:41;;;;;;;9.93;2.63;;;;;3.60;100695.00;;;;10031551;29;20332;-78
2023/02/24 07:10:43;;;;;;;6.43;3.00;;;;;3.60;100687.00;;;;10050157;29;20323;-78
2023/02/24 07:15:48;;;;;;;11.83;3.27;;;;;3.70;100681.00;;;;10026364;29;20205;-78
2023/02/24 07:20:50;;;;;;;11.53;3.83;;;;;3.80;100684.00;;;;10044621;29;20810;-78
2023/02/24 07:25:52;;;;;;;14.30;3.73;;;;;3.90;100676.00;;;;10042614;29;20230;-79
2023/02/24 07:30:54;;;;;;;10.07;3.20;;;;;3.90;100672.00;;;;10032691;29;20205;-78
2023/02/24 07:35:56;;;;;;;5.70;2.97;;;;;4.10;100656.00;;;;10035117;29;20257;-78
2023/02/24 07:40:59;;;;;;;9.33;3.23;;;;;4.30;100651.00;;;;10031448;29;20300;-78
2023/02/24 07:46:13;;;;;;;11.60;2.70;;;;;4.60;100647.00;;;;10027042;29;20197;-78
2023/02/24 07:51:18;;;;;;;7.60;3.07;;;;;4.90;100650.00;;;;10035889;29;20205;-79
2023/02/24 07:56:25;;;;;;;19.30;3.27;;;;;5.10;100637.00;;;;10031624;29;20193;-78
2023/02/24 08:01:37;;;;;;;12.37;2.90;;;;;5.30;100634.00;;;;10008981;29;20252;-79
2023/02/24 08:06:43;;;;;;;12.00;3.23;;;;;5.40;100639.00;;;;10035197;29;20304;-79
2023/02/24 08:11:51;;;;;;;10.47;2.73;;;;;5.50;100639.00;;;;10034288;29;20225;-79
2023/02/24 08:16:58;;;;;;;11.83;2.70;;;;;5.80;100630.00;;;;10008028;29;20430;-78
2023/02/24 08:22:36;;;;;;;8.73;2.43;;;;;6.00;100615.00;;;;10032911;29;20212;-78
2023/02/24 08:27:29;;;;;;;8.77;1.93;;;;;6.10;100623.00;;;;10019570;29;20217;-79
2023/02/24 08:32:35;;;;;;;10.20;2.00;;;;;6.20;100616.00;;;;10043096;29;20239;-78
2023/02/24 08:37:45;;;;;;;10.63;2.43;;;;;6.40;100594.00;;;;10028466;29;20304;-78
2023/02/24 08:42:48;;;;;;;10.70;2.23;;;;;6.80;100602.00;;;;10031039;29;20217;-78
2023/02/24 08:47:53;;;;;;;9.20;2.20;;;;;6.90;100593.00;;;;10017307;29;20345;-78
2023/02/24 08:52:56;;;;;;;7.50;1.63;;;;;7.00;100579.00;;;;10022880;29;20776;-78
2023/02/24 08:58:02;;;;;;;10.13;2.07;;;;;7.00;100570.00;;;;10039682;29;20648;-79
2023/02/24 09:03:07;;;;;;;7.13;1.50;;;;;7.10;100571.00;;;;9998137;29;20248;-78
2023/02/24 09:08:09;;;;;;;7.50;2.00;;;;;7.00;100572.00;;;;10019591;29;20273;-78
2023/02/24 09:13:13;;;;;;;8.83;1.40;;;;;7.20;100563.00;;;;10018173;29;20637;-78
2023/02/24 09:18:15;;;;;;;5.30;1.20;;;;;7.60;100545.00;;;;10021283;29;20200;-79
2023/02/24 09:23:28;;;;;;;8.10;1.50;;;;;8.30;100544.00;;;;10029800;29;20340;-78
2023/02/24 09:28:47;;;;;;;8.40;1.80;;;;;9.20;100518.00;;;;10015776;29;20201;-78
2023/02/24 09:33:53;;;;;;;5.13;1.70;;;;;10.40;100518.00;;;;10021939;29;20252;-79
2023/02/24 09:44:16;;;;;;;4.63;1.53;;;;;10.80;100508.00;;;;10034732;29;20217;-79
2023/02/24 09:49:38;;;;;;;8.43;2.10;;;;;9.70;100527.00;;;;10008968;29;20256;-79
2023/02/24 09:55:11;;;;;;;8.83;2.20;;;;;9.70;100526.00;;;;10021898;29;20256;-79
2023/02/24 10:00:24;;;;;;;5.00;2.13;;;;;9.40;100518.00;;;;10037360;29;20217;-79
2023/02/24 10:05:37;;;;;;;4.50;1.73;;;;;8.90;100517.00;;;;10028932;29;20212;-79
2023/02/24 10:10:59;;;;;;;7.30;1.90;;;;;8.40;100499.00;;;;10034028;29;20201;-78
2023/02/24 10:16:05;;;;;;;4.17;2.00;;;;;8.00;100512.00;;;;9987787;29;20261;-78
2023/02/24 10:21:29;;;;;;;5.30;1.93;;;;;7.90;100500.00;;;;10031040;29;20209;-78
2023/02/24 10:26:43;;;;;;;7.47;1.63;;;;;8.00;100487.00;;;;10031260;29;20199;-78
2023/02/24 10:32:15;;;;;;;16.87;2.50;;;;;7.90;100493.00;;;;10019832;29;20212;-77
2023/02/24 10:37:21;;;;;;;8.43;2.20;;;;;8.10;100488.00;;;;10043486;29;21004;-79
2023/02/24 10:42:33;;;;;;;8.03;2.13;;;;;8.40;100477.00;;;;10033441;29;20580;-79
2023/02/24 10:47:35;;;;;;;7.03;1.97;;;;;8.40;100479.00;;;;9995562;29;20213;-79
2023/02/24 10:52:49;;;;;;;7.70;2.07;;;;;8.30;100478.00;;;;10030653;29;20584;-78
2023/02/24 10:58:05;;;;;;;5.13;2.17;;;;;8.60;100455.00;;;;10042345;29;20272;-78
2023/02/24 11:03:13;;;;;;;6.70;2.30;;;;;9.00;100454.00;;;;10043947;29;21949;-78
2023/02/24 11:08:35;;;;;;;8.73;3.07;;;;;9.40;100446.00;;;;10018913;29;20223;-79
2023/02/24 11:18:58;;;;;;;10.83;2.47;;;;;9.70;100414.00;;;;10038131;29;20226;-78
2023/02/24 11:24:04;;;;;;;7.80;2.80;;;;;10.00;100408.00;;;;10040820;29;20284;-79
2023/02/24 11:29:33;;;;;;;6.60;2.20;;;;;10.80;100396.00;;;;10038620;29;20201;-78
2023/02/24 11:34:48;;;;;;;8.60;2.60;;;;;11.20;100386.00;;;;10009593;29;20661;-78
2023/02/24 11:40:04;;;;;;;8.57;2.20;;;;;11.60;100382.00;;;;10032609;29;20228;-79
2023/02/24 11:45:26;;;;;;;7.67;1.90;;;;;11.40;100379.00;;;;10027761;29;20221;-77
2023/02/24 11:50:42;;;;;;;7.77;2.30;;;;;10.70;100383.00;;;;10034667;29;20228;-78
2023/02/24 11:55:50;;;;;;;8.40;2.73;;;;;10.20;100372.00;;;;10033503;29;20243;-78
2023/02/24 12:01:05;;;;;;;4.33;2.00;;;;;9.70;100362.00;;;;10055852;29;20683;-79
2023/02/24 12:06:15;;;;;;;9.47;2.90;;;;;9.70;100353.00;;;;10027144;29;20231;-78
2023/02/24 12:11:41;;;;;;;7.90;2.13;;;;;9.80;100336.00;;;;10029066;29;20254;-78
2023/02/24 12:16:47;;;;;;;7.37;2.83;;;;;9.50;100335.00;;;;10039418;29;20204;-78
2023/02/24 12:22:06;;;;;;;7.13;2.70;;;;;9.70;100335.00;;;;10031640;29;20192;-78
2023/02/24 12:27:23;;;;;;;5.10;1.90;;;;;9.80;100315.00;;;;10031664;29;20200;-78
2023/02/24 12:32:56;;;;;;;7.67;2.70;;;;;10.20;100297.00;;;;10029272;29;20196;-78
2023/02/24 12:38:24;;;;;;;6.17;2.20;;;;;11.10;100294.00;;;;10058040;29;20320;-78
2023/02/24 12:43:29;;;;;;;12.53;2.93;;;;;10.90;100300.00;;;;10041849;29;20629;-79
2023/02/24 12:49:02;;;;;;;7.17;2.93;;;;;10.90;100292.00;;;;10026969;29;20235;-78
2023/02/24 12:54:10;;;;;;;8.23;2.73;;;;;11.20;100282.00;;;;10023253;29;20198;-78
2023/02/24 12:59:18;;;;;;;6.67;2.80;;;;;11.10;100260.00;;;;10057250;29;20284;-78
2023/02/24 13:05:03;;;;;;;8.60;3.00;;;;;11.20;100271.00;;;;10020125;29;20244;-78
2023/02/24 13:10:28;;;;;;;6.87;3.43;;;;;10.70;100268.00;;;;10016114;29;20200;-78
2023/02/24 13:15:31;;;;;;;9.57;3.37;;;;;10.20;100270.00;;;;10038987;29;20272;-78
2023/02/24 13:20:36;;;;;;;9.57;3.47;;;;;9.90;100258.00;;;;10038871;29;20657;-78
2023/02/24 13:25:38;;;;;;;6.70;3.20;;;;;9.70;100251.00;;;;10012475;29;20221;-78
2023/02/24 13:30:43;;;;;;;8.97;3.47;;;;;9.40;100266.00;;;;10052351;29;20658;-78
2023/02/24 13:35:47;;;;;;;7.87;3.17;;;;;9.20;100261.00;;;;10014074;29;20216;-78
2023/02/24 13:40:50;;;;;;;5.90;3.47;;;;;8.70;100254.00;;;;10019185;29;20200;-78
2023/02/24 13:45:58;;;;;;;12.20;3.80;;;;;8.50;100247.00;;;;10041159;29;20968;-78
2023/02/24 13:51:34;;;;;;;7.23;4.13;;;;;8.00;100239.00;;;;10013849;29;20211;-78
2023/02/24 13:57:15;;;;;;;10.90;4.20;;;;;7.80;100269.00;;;;10021657;29;20201;-78
2023/02/24 14:02:21;;;;;;;11.53;4.90;;;;;7.80;100253.00;;;;9994831;29;20710;-77
2023/02/24 14:07:27;;;;;;;14.00;5.30;;;;;7.90;100256.00;;;;10014096;29;20671;-78
2023/02/24 14:12:36;;;;;;;9.17;4.93;;;;;8.10;100238.00;;;;10043459;29;20347;-77
2023/02/24 14:17:38;;;;;;;8.87;4.40;;;;;8.00;100240.00;;;;10011851;29;20212;-78
2023/02/24 14:22:54;;;;;;;9.63;4.77;;;;;7.90;100230.00;;;;10012253;29;20305;-78
2023/02/24 14:27:56;;;;;;;8.73;5.13;;;;;7.90;100239.00;;;;10019741;29;20201;-78
2023/02/24 14:32:59;;;;;;;7.03;4.83;;;;;7.50;100240.00;;;;10044268;29;20198;-78
2023/02/24 14:38:03;;;;;;;9.50;5.30;;;;;7.30;100246.00;;;;10013416;29;20213;-77
2023/02/24 14:43:13;;;;;;;12.23;4.60;;;;;7.20;100240.00;;;;10035075;29;20213;-78
2023/02/24 14:48:27;;;;;;;10.90;5.47;;;;;7.00;100235.00;;;;10051544;29;20204;-77
2023/02/24 14:53:31;;;;;;;12.80;5.40;;;;;7.00;100228.00;;;;10019103;29;20844;-77
2023/02/24 14:58:43;;;;;;;9.63;5.00;;;;;7.00;100224.00;;;;10026743;29;20577;-78
2023/02/24 15:03:50;;;;;;;11.00;5.27;;;;;7.00;100225.00;;;;10046457;29;20212;-78
2023/02/24 15:09:00;;;;;;;8.77;5.47;;;;;7.00;100225.00;;;;10035766;29;20685;-78
2023/02/24 15:14:06;;;;;;;9.23;5.10;;;;;6.90;100219.00;;;;10057594;29;20212;-77
2023/02/24 15:19:36;;;;;;;13.53;6.00;;;;;6.70;100216.00;;;;10027555;29;20796;-77
2023/02/24 15:24:38;;;;;;;9.20;5.33;;;;;6.60;100215.00;;;;10015367;29;20205;-78
2023/02/24 15:29:43;;;;;;;10.60;6.30;;;;;6.90;100216.00;;;;10013940;29;20205;-78
2023/02/24 15:34:46;;;;;;;12.70;6.90;;;;;7.00;100205.00;;;;10025701;29;20633;-78
2023/02/24 15:39:51;;;;;;;13.97;6.77;;;;;7.30;100207.00;;;;10020072;29;20621;-78
2023/02/24 15:45:05;;;;;;;15.47;7.80;;;;;7.50;100190.00;;;;10040128;29;20925;-78
2023/02/24 15:50:08;;;;;;;14.90;8.50;;;;;7.50;100182.00;;;;9996505;29;20194;-79
2023/02/24 15:55:14;;;;;;;19.30;9.53;;;;;7.40;100183.00;;;;10041758;29;20246;-78
2023/02/24 16:00:18;;;;;;;14.57;10.03;;;;;7.40;100173.00;;;;10069070;29;20261;-79
2023/02/24 16:05:23;;;;;;;18.33;9.33;;;;;7.40;100179.00;;;;10039629;29;20229;-78
2023/02/24 16:10:28;;;;;;;17.60;11.23;;;;;7.40;100179.00;;;;10022329;29;20205;-79
2023/02/24 16:15:34;;;;;;;17.73;11.43;;;;;7.40;100173.00;;;;10044785;29;20258;-78
2023/02/24 16:20:38;;;;;;;17.63;10.67;;;;;7.40;100177.00;;;;10052713;29;20225;-79
2023/02/24 16:25:43;;;;;;;20.47;10.97;;;;;7.30;100157.00;;;;10013064;29;20229;-78
2023/02/24 16:30:46;;;;;;;15.60;10.43;;;;;7.20;100155.00;;;;10027697;29;20657;-78
2023/02/24 16:35:52;;;;;;;24.70;12.13;;;;;7.10;100172.00;;;;10015086;29;20197;-78
2023/02/24 16:40:54;;;;;;;19.50;11.73;;;;;7.00;100172.00;;;;9981612;29;20209;-79
2023/02/24 16:46:02;;;;;;;25.37;13.97;;;;;6.80;100179.00;;;;10030138;29;20251;-78
2023/02/24 16:51:06;;;;;;;16.83;11.40;;;;;6.60;100179.00;;;;10029210;29;20538;-78
2023/02/24 16:56:08;;;;;;;23.77;11.30;;;;;6.40;100183.00;;;;10041956;29;20193;-77
2023/02/24 17:01:17;;;;;;;16.33;10.23;;;;;6.40;100180.00;;;;10063854;29;20665;-78
2023/02/24 17:06:21;;;;;;;16.67;5.97;;;;;6.20;100186.00;;;;10034064;29;20213;-77
2023/02/24 17:11:26;;;;;;;12.53;5.47;;;;;5.90;100188.00;;;;10057167;29;20205;-77
2023/02/24 17:16:28;;;;;;;18.40;3.97;;;;;5.70;100193.00;;;;10035253;29;20736;-77
2023/02/24 17:21:30;;;;;;;8.20;2.80;;;;;5.50;100193.00;;;;10003282;29;20194;-78
2023/02/24 17:26:32;;;;;;;12.07;3.43;;;;;5.50;100189.00;;;;10005470;29;20263;-77
2023/02/24 17:31:34;;;;;;;11.03;2.33;;;;;5.40;100190.00;;;;10013957;29;20217;-77
2023/02/24 17:36:37;;;;;;;7.60;2.57;;;;;5.40;100198.00;;;;9999949;29;20531;-78
2023/02/24 17:41:39;;;;;;;13.80;2.93;;;;;5.30;100199.00;;;;10564073;24;20731;-78
2023/02/24 17:46:40;;;;;;;5.17;2.33;;;;;5.40;100201.00;;;;10038821;29;20679;-78
2023/02/24 17:51:42;;;;;;;6.73;2.47;;;;;5.40;100220.00;;;;10029197;29;20203;-78
2023/02/24 17:56:44;;;;;;;10.83;2.90;;;;;5.50;100221.00;;;;10076123;29;20248;-77
2023/02/24 18:01:46;;;;;;;13.90;2.77;;;;;5.60;100221.00;;;;10041793;29;20210;-78
2023/02/24 18:06:49;;;;;;;12.60;3.97;;;;;5.60;100230.00;;;;10075312;29;20219;-77
2023/02/24 18:11:51;;;;;;;11.07;3.17;;;;;5.70;100221.00;;;;10045066;29;20559;-77
2023/02/24 18:16:53;;;;;;;12.40;3.50;;;;;5.80;100216.00;;;;10044815;29;20196;-79
2023/02/24 18:21:55;;;;;;;9.53;2.70;;;;;5.80;100219.00;;;;10060959;29;20260;-78
2023/02/24 18:26:57;;;;;;;15.07;3.37;;;;;5.70;100218.00;;;;10044655;29;20281;-77
2023/02/24 18:31:59;;;;;;;11.97;4.10;;;;;5.70;100230.00;;;;10007028;29;20205;-78
2023/02/24 18:37:01;;;;;;;9.03;3.17;;;;;5.70;100233.00;;;;10036174;29;20304;-78
2023/02/24 18:42:03;;;;;;;16.47;2.90;;;;;5.60;100235.00;;;;10006549;29;20421;-78
2023/02/24 18:47:08;;;;;;;12.77;2.70;;;;;5.50;100237.00;;;;10036246;29;20216;-78
2023/02/24 18:52:11;;;;;;;11.07;2.47;;;;;5.40;100245.00;;;;10042291;29;20232;-78
2023/02/24 18:57:13;;;;;;;10.03;2.53;;;;;5.30;100247.00;;;;10067073;29;20219;-77
2023/02/24 19:02:16;;;;;;;12.00;1.87;;;;;5.20;100257.00;;;;10051548;29;20196;-77
2023/02/24 19:07:18;;;;;;;7.60;2.30;;;;;5.10;100263.00;;;;10065979;29;20253;-77
2023/02/24 19:12:20;;;;;;;8.27;1.90;;;;;4.90;100263.00;;;;10050392;29;20224;-77
2023/02/24 19:17:22;;;;;;;7.00;2.43;;;;;4.90;100258.00;;;;10050416;29;20237;-78
2023/02/24 19:22:24;;;;;;;8.63;2.07;;;;;4.90;100261.00;;;;10035714;29;20200;-77
2023/02/24 19:27:27;;;;;;;9.87;2.40;;;;;4.80;100269.00;;;;10050213;29;20233;-77
2023/02/24 19:32:29;;;;;;;6.33;2.20;;;;;4.80;100271.00;;;;10027546;29;20581;-77
2023/02/24 19:37:32;;;;;;;8.57;2.27;;;;;4.80;100275.00;;;;10013072;29;20597;-78
2023/02/24 19:42:34;;;;;;;9.33;2.20;;;;;4.60;100278.00;;;;10012348;29;20224;-78
2023/02/24 19:47:36;;;;;;;7.37;2.13;;;;;4.60;100284.00;;;;10012659;29;20295;-78
2023/02/24 19:52:38;;;;;;;9.60;2.50;;;;;4.70;100290.00;;;;10033464;29;20288;-78
2023/02/24 19:57:40;;;;;;;13.67;2.17;;;;;4.70;100300.00;;;;10025205;29;20322;-78
2023/02/24 20:02:42;;;;;;;9.23;2.27;;;;;4.60;100288.00;;;;10037960;29;20240;-78
2023/02/24 20:07:44;;;;;;;9.43;2.73;;;;;4.50;100296.00;;;;10042192;29;20335;-77
2023/02/24 20:12:47;;;;;;;8.70;2.23;;;;;4.50;100302.00;;;;10063852;29;20204;-78
2023/02/24 20:17:49;;;;;;;5.70;2.13;;;;;4.50;100299.00;;;;10046879;29;20241;-77
2023/02/24 20:22:51;;;;;;;6.83;2.07;;;;;4.60;100304.00;;;;10025579;29;20197;-77
2023/02/24 20:27:53;;;;;;;8.73;2.40;;;;;4.50;100304.00;;;;10044433;29;20694;-77
2023/02/24 20:32:55;;;;;;;6.20;1.87;;;;;4.40;100305.00;;;;10047587;29;20648;-78
2023/02/24 20:37:57;;;;;;;11.40;1.80;;;;;4.30;100310.00;;;;10063562;29;20271;-77
2023/02/24 20:42:59;;;;;;;9.63;2.10;;;;;4.20;100322.00;;;;10062247;29;20231;-78
2023/02/24 20:48:01;;;;;;;10.37;1.90;;;;;4.10;100324.00;;;;10078735;29;20628;-77
2023/02/24 20:53:03;;;;;;;5.73;1.73;;;;;4.10;100316.00;;;;10077581;29;20196;-77
2023/02/24 20:58:05;;;;;;;6.73;1.87;;;;;4.00;100322.00;;;;10040250;29;20236;-78
2023/02/24 21:03:10;;;;;;;4.73;1.40;;;;;4.00;100334.00;;;;10044892;29;20223;-78
2023/02/24 21:08:12;;;;;;;3.67;1.37;;;;;3.90;100330.00;;;;10062847;29;20216;-78
2023/02/24 21:13:16;;;;;;;5.23;1.57;;;;;3.90;100332.00;;;;10076951;29;20203;-77
2023/02/24 21:18:20;;;;;;;8.53;1.83;;;;;4.10;100334.00;;;;10047062;29;20228;-78
2023/02/24 21:23:23;;;;;;;4.07;2.07;;;;;4.20;100334.00;;;;10076892;29;20694;-78
2023/02/24 21:28:25;;;;;;;7.43;1.87;;;;;4.20;100339.00;;;;10046257;29;20219;-77
2023/02/24 21:33:27;;;;;;;10.20;2.43;;;;;4.30;100350.00;;;;10061431;29;20207;-78
2023/02/24 21:38:35;;;;;;;6.87;1.83;;;;;4.40;100345.00;;;;10031499;29;20664;-77
2023/02/24 21:43:37;;;;;;;8.33;2.40;;;;;4.40;100353.00;;;;10056374;29;20280;-77
2023/02/24 21:48:40;;;;;;;8.27;2.33;;;;;4.30;100341.00;;;;10017649;29;20215;-77
2023/02/24 21:53:43;;;;;;;7.97;2.23;;;;;4.10;100344.00;;;;10051615;29;20193;-78
2023/02/24 21:58:50;;;;;;;9.00;1.80;;;;;3.90;100344.00;;;;10016922;29;20211;-77
2023/02/24 22:03:54;;;;;;;7.30;2.10;;;;;3.70;100351.00;;;;10044608;29;20216;-78
2023/02/24 22:08:56;;;;;;;5.10;1.97;;;;;3.60;100353.00;;;;10059360;29;20196;-77
2023/02/24 22:13:58;;;;;;;10.17;2.50;;;;;3.50;100360.00;;;;10059290;29;20680;-77
2023/02/24 22:19:00;;;;;;;4.57;1.93;;;;;3.30;100362.00;;;;10029370;29;20214;-77
2023/02/24 22:24:03;;;;;;;6.37;2.00;;;;;3.10;100362.00;;;;10092587;29;20212;-77
2023/02/24 22:29:05;;;;;;;11.27;2.77;;;;;3.00;100371.00;;;;10054740;29;20212;-77
2023/02/24 22:34:07;;;;;;;9.90;3.17;;;;;3.20;100373.00;;;;10064721;29;20196;-78
2023/02/24 22:39:15;;;;;;;13.87;3.20;;;;;3.30;100369.00;;;;10051479;29;20216;-78
2023/02/24 22:44:20;;;;;;;11.30;4.27;;;;;3.20;100371.00;;;;10041015;29;20239;-78
2023/02/24 22:49:22;;;;;;;12.57;3.73;;;;;3.20;100363.00;;;;10081546;29;20614;-78
2023/02/24 22:54:24;;;;;;;11.83;3.37;;;;;3.20;100364.00;;;;10040764;29;20560;-78
2023/02/24 22:59:25;;;;;;;8.13;3.20;;;;;3.10;100368.00;;;;9997977;29;20205;-77
2023/02/24 23:04:28;;;;;;;11.97;3.33;;;;;3.10;100378.00;;;;10022646;29;20227;-77
2023/02/24 23:09:30;;;;;;;8.60;2.77;;;;;3.00;100372.00;;;;10058147;29;20633;-78
2023/02/24 23:14:32;;;;;;;14.40;3.40;;;;;3.00;100364.00;;;;10043200;29;20185;-78
2023/02/24 23:19:34;;;;;;;7.53;2.77;;;;;2.90;100348.00;;;;10027233;29;20621;-77
2023/02/24 23:24:36;;;;;;;8.30;2.77;;;;;2.90;100355.00;;;;10054209;29;20205;-77
2023/02/24 23:29:37;;;;;;;14.17;2.97;;;;;2.90;100354.00;;;;10079813;29;20668;-78
2023/02/24 23:34:40;;;;;;;14.97;2.90;;;;;2.90;100368.00;;;;10026617;29;20246;-77
2023/02/24 23:39:42;;;;;;;9.07;2.30;;;;;2.90;100380.00;;;;10032130;29;20227;-78
2023/02/24 23:44:45;;;;;;;8.60;1.93;;;;;3.00;100392.00;;;;10034406;29;20220;-77
2023/02/24 23:49:46;;;;;;;7.97;2.13;;;;;3.00;100382.00;;;;10049240;29;20208;-77
2023/02/24 23:54:51;;;;;;;6.20;1.83;;;;;2.90;100388.00;;;;10080394;29;20220;-77
2023/02/24 23:59:53;;;;;;;16.00;2.87;;;;;2.90;100394.00;;;;10096807;29;20199;-78
